Time,TemperatureF,DewpointF,PressureIn,WindDirection,WindDirectionDegrees,WindSpeedMPH,WindSpeedGustMPH,Humidity,HourlyPrecipIn,Conditions,Clouds,dailyrainin,SoftwareType,DateUTC
2013-10-31 00:04:00,39.0,39.0,-100.00,SSW,200,6.0,8.0,99,-99.99,,,-99.99,,2013-10-31 05:04:00,
2013-10-31 00:43:00,39.0,38.0,-100.00,SSW,205,2.0,3.0,99,-99.99,,,-99.99,,2013-10-31 05:43:00,
2013-10-31 00:52:00,39.0,38.0,-100.00,SSW,205,2.0,3.0,99,-99.99,,,-99.99,,2013-10-31 05:52:00,
2013-10-31 01:02:00,39.0,38.0,-100.00,SSW,205,2.0,3.0,99,-99.99,,,-99.99,,2013-10-31 06:02:00,
2013-10-31 01:42:00,39.0,38.0,-100.00,South,180,6.0,7.0,99,-99.99,,,-99.99,,2013-10-31 06:42:00,
2013-10-31 01:53:00,39.0,38.0,-100.00,South,180,6.0,7.0,99,-99.99,,,-99.99,,2013-10-31 06:53:00,
2013-10-31 02:01:00,39.0,38.0,-100.00,South,180,6.0,7.0,99,-99.99,,,-99.99,,2013-10-31 07:01:00,
2013-10-31 02:11:00,38.0,38.0,-100.00,South,185,6.0,6.0,99,-99.99,,,-99.99,,2013-10-31 07:11:00,
2013-10-31 02:42:00,38.0,38.0,-100.00,South,185,6.0,6.0,99,-99.99,,,-99.99,,2013-10-31 07:42:00,
2013-10-31 02:52:00,38.0,38.0,-100.00,South,185,6.0,6.0,99,-99.99,,,-99.99,,2013-10-31 07:52:00,
2013-10-31 03:03:00,38.0,38.0,-100.00,South,185,6.0,6.0,99,-99.99,,,-99.99,,2013-10-31 08:03:00,
2013-10-31 03:11:00,38.0,38.0,-100.00,SSW,200,3.0,4.0,99,-99.99,,,-99.99,,2013-10-31 08:11:00,
2013-10-31 03:42:00,38.0,38.0,-100.00,SSW,200,3.0,4.0,99,-99.99,,,-99.99,,2013-10-31 08:42:00,
2013-10-31 03:52:00,38.0,38.0,-100.00,SSW,200,3.0,4.0,99,-99.99,,,-99.99,,2013-10-31 08:52:00,
2013-10-31 04:01:00,38.0,38.0,-100.00,SSW,200,3.0,4.0,99,-99.99,,,-99.99,,2013-10-31 09:01:00,
2013-10-31 04:43:00,38.0,38.0,-100.00,South,185,2.0,3.0,99,-99.99,,,-99.99,,2013-10-31 09:43:00,
2013-10-31 04:53:00,38.0,38.0,-100.00,South,185,2.0,3.0,99,-99.99,,,-99.99,,2013-10-31 09:53:00,
2013-10-31 05:03:00,38.0,38.0,-100.00,South,185,2.0,3.0,99,-99.99,,,-99.99,,2013-10-31 10:03:00,
2013-10-31 05:42:00,38.0,38.0,-100.00,South,170,6.0,6.0,99,-99.99,,,-99.99,,2013-10-31 10:42:00,
2013-10-31 05:53:00,38.0,38.0,-100.00,South,170,6.0,6.0,99,-99.99,,,-99.99,,2013-10-31 10:53:00,
2013-10-31 06:03:00,38.0,38.0,-100.00,South,170,6.0,6.0,99,-99.99,,,-99.99,,2013-10-31 11:03:00,
2013-10-31 06:42:00,38.0,38.0,-100.00,SW,220,3.0,4.0,99,-99.99,,,-99.99,,2013-10-31 11:42:00,
2013-10-31 06:52:00,38.0,38.0,-100.00,SW,220,3.0,4.0,99,-99.99,,,-99.99,,2013-10-31 11:52:00,
2013-10-31 07:01:00,38.0,38.0,-100.00,SW,220,3.0,4.0,99,-99.99,,,-99.99,,2013-10-31 12:01:00,
2013-10-31 07:10:00,39.0,38.0,-100.00,West,265,3.0,4.0,99,-99.99,,,-99.99,,2013-10-31 12:10:00,
2013-10-31 07:42:00,39.0,38.0,-100.00,West,265,3.0,4.0,99,-99.99,,,-99.99,,2013-10-31 12:42:00,
2013-10-31 07:52:00,39.0,38.0,-100.00,West,265,3.0,4.0,99,-99.99,,,-99.99,,2013-10-31 12:52:00,
2013-10-31 08:01:00,39.0,38.0,-100.00,West,265,3.0,4.0,99,-99.99,,,-99.99,,2013-10-31 13:01:00,
2013-10-31 08:10:00,39.0,38.0,-100.00,WSW,250,2.0,2.0,99,-99.99,,,-99.99,,2013-10-31 13:10:00,
2013-10-31 08:42:00,39.0,38.0,-100.00,WSW,250,2.0,2.0,99,-99.99,,,-99.99,,2013-10-31 13:42:00,
2013-10-31 08:52:00,39.0,38.0,-100.00,WSW,250,2.0,2.0,99,-99.99,,,-99.99,,2013-10-31 13:52:00,
2013-10-31 09:02:00,39.0,38.0,-100.00,WSW,250,2.0,2.0,99,-99.99,,,-99.99,,2013-10-31 14:02:00,
2013-10-31 09:10:00,39.0,39.0,-100.00,WSW,240,2.0,2.0,99,-99.99,,,-99.99,,2013-10-31 14:10:00,
2013-10-31 09:42:00,39.0,39.0,-100.00,WSW,240,2.0,2.0,99,-99.99,,,-99.99,,2013-10-31 14:42:00,
2013-10-31 09:52:00,39.0,39.0,-100.00,WSW,240,2.0,2.0,99,-99.99,,,-99.99,,2013-10-31 14:52:00,
2013-10-31 10:02:00,39.0,39.0,-100.00,WSW,240,2.0,2.0,99,-99.99,,,-99.99,,2013-10-31 15:02:00,
2013-10-31 10:10:00,41.0,41.0,-100.00,SW,225,3.0,4.0,99,-99.99,,,-99.99,,2013-10-31 15:10:00,
2013-10-31 12:10:00,44.0,41.0,-100.00,SSW,205,6.0,6.0,90,-99.99,,,-99.99,,2013-10-31 17:10:00,
2013-10-31 12:43:00,44.0,41.0,-100.00,SSW,205,6.0,6.0,90,-99.99,,,-99.99,,2013-10-31 17:43:00,
2013-10-31 12:52:00,44.0,41.0,-100.00,SSW,205,6.0,6.0,90,-99.99,,,-99.99,,2013-10-31 17:52:00,
2013-10-31 13:02:00,44.0,41.0,-100.00,SSW,205,6.0,6.0,90,-99.99,,,-99.99,,2013-10-31 18:02:00,
2013-10-31 13:42:00,46.0,41.0,-100.00,West,265,7.0,7.0,83,-99.99,,,-99.99,,2013-10-31 18:42:00,
2013-10-31 13:52:00,46.0,41.0,-100.00,West,265,7.0,7.0,83,-99.99,,,-99.99,,2013-10-31 18:52:00,
2013-10-31 14:01:00,46.0,41.0,-100.00,West,265,7.0,7.0,83,-99.99,,,-99.99,,2013-10-31 19:01:00,